createdAt,value
2022-10-05T00:04:55.937Z,82.20
2022-10-05T00:09:59.515Z,82.46
2022-10-05T00:15:02.313Z,82.68
2022-10-05T00:20:26.354Z,82.31
2022-10-05T00:25:29.107Z,83.04
2022-10-05T00:30:33.232Z,82.88
2022-10-05T00:35:36.078Z,82.50
2022-10-05T00:41:08.471Z,82.09
2022-10-05T00:46:50.305Z,82.37
2022-10-05T00:52:56.281Z,82.50
2022-10-05T00:58:28.140Z,82.47
2022-10-05T01:03:57.208Z,82.20
2022-10-05T01:09:16.011Z,82.19
2022-10-05T01:14:33.036Z,82.24
2022-10-05T01:20:00.503Z,82.20
2022-10-05T01:25:24.247Z,82.14
2022-10-05T01:30:26.883Z,82.40
2022-10-05T01:36:23.371Z,82.40
2022-10-05T01:41:39.458Z,82.74
2022-10-05T01:46:47.361Z,82.13
2022-10-05T01:52:15.053Z,82.57
2022-10-05T01:57:36.675Z,82.23
2022-10-05T02:02:57.518Z,82.08
2022-10-05T02:08:08.339Z,82.07
2022-10-05T02:13:18.853Z,82.28
2022-10-05T02:18:27.430Z,82.69
2022-10-05T02:23:32.888Z,82.60
2022-10-05T02:28:42.996Z,82.39
2022-10-05T02:33:45.765Z,82.29
2022-10-05T02:39:00.398Z,82.26
2022-10-05T02:44:40.301Z,82.43
2022-10-05T02:49:58.418Z,82.79
2022-10-05T02:55:19.807Z,82.65
2022-10-05T03:00:24.368Z,82.94
2022-10-05T03:06:02.668Z,83.13
2022-10-05T03:11:18.768Z,83.44
2022-10-05T03:16:52.289Z,83.20
2022-10-05T03:22:50.446Z,83.20
2022-10-05T03:28:34.343Z,83.31
2022-10-05T03:34:00.742Z,83.25
2022-10-05T03:39:14.435Z,83.18
2022-10-05T03:44:38.769Z,83.13
2022-10-05T03:49:53.429Z,83.71
2022-10-05T03:55:15.144Z,83.54
2022-10-05T04:00:23.223Z,83.16
2022-10-05T04:05:32.596Z,83.03
2022-10-05T04:10:46.178Z,83.20
2022-10-05T04:16:08.817Z,83.66
2022-10-05T04:21:25.682Z,83.78
2022-10-05T04:26:42.002Z,83.06
2022-10-05T04:31:57.573Z,83.57
2022-10-05T04:37:04.610Z,83.49
2022-10-05T04:42:26.332Z,83.58
2022-10-05T04:48:19.905Z,83.48
2022-10-05T04:53:45.676Z,83.55
2022-10-05T04:59:21.526Z,83.92
2022-10-05T05:05:21.091Z,84.20
2022-10-05T05:11:06.500Z,84.34
2022-10-05T05:16:44.688Z,84.55
2022-10-05T05:22:41.047Z,84.30
2022-10-05T05:28:05.750Z,84.83
2022-10-05T05:33:21.694Z,84.88
2022-10-05T05:38:33.544Z,84.60
2022-10-05T05:43:53.023Z,84.76
2022-10-05T05:48:56.452Z,84.68
2022-10-05T05:54:33.287Z,84.77
2022-10-05T06:00:17.615Z,84.50
2022-10-05T06:05:28.044Z,84.30
2022-10-05T06:10:35.299Z,84.36
2022-10-05T06:16:06.871Z,84.48
2022-10-05T06:21:21.419Z,84.50
2022-10-05T06:27:07.381Z,84.45
2022-10-05T06:32:50.756Z,84.10
2022-10-05T06:38:05.278Z,83.83
2022-10-05T06:43:33.588Z,83.70
2022-10-05T06:49:20.517Z,83.42
2022-10-05T06:54:38.105Z,83.07
2022-10-05T06:59:55.438Z,82.83
2022-10-05T07:05:35.939Z,82.49
2022-10-05T07:11:15.369Z,81.66
2022-10-05T07:16:38.554Z,81.69
2022-10-05T07:22:18.969Z,81.29
2022-10-05T07:27:23.987Z,80.74
2022-10-05T07:33:02.494Z,80.52
2022-10-05T07:38:32.089Z,80.23
2022-10-05T07:44:02.632Z,80.28
2022-10-05T07:49:23.191Z,79.25
2022-10-05T07:54:34.413Z,79.07
2022-10-05T08:00:07.384Z,78.41
2022-10-05T08:05:23.656Z,76.57
2022-10-05T08:10:31.931Z,76.84
2022-10-05T08:15:45.987Z,76.78
2022-10-05T08:20:57.056Z,75.74
2022-10-05T08:26:42.409Z,75.76
2022-10-05T08:31:49.071Z,75.22
2022-10-05T08:37:29.062Z,74.30
2022-10-05T08:43:32.995Z,72.76
2022-10-05T08:48:56.583Z,72.56
2022-10-05T08:54:20.610Z,72.11
2022-10-05T09:00:09.280Z,71.29
2022-10-05T09:05:45.169Z,71.39
2022-10-05T09:11:03.998Z,71.21
2022-10-05T09:16:39.353Z,69.68
2022-10-05T09:21:58.188Z,69.31
2022-10-05T09:27:10.236Z,69.70
2022-10-05T09:32:51.681Z,68.92
2022-10-05T09:38:20.578Z,67.39
2022-10-05T09:44:04.843Z,67.84
2022-10-05T09:49:38.390Z,67.71
2022-10-05T09:55:24.117Z,67.73
2022-10-05T10:00:54.240Z,67.39
2022-10-05T10:06:33.846Z,66.94
2022-10-05T10:12:25.554Z,66.14
2022-10-05T10:17:43.202Z,66.46
2022-10-05T10:22:57.659Z,65.36
2022-10-05T10:28:37.785Z,63.89
2022-10-05T10:34:06.841Z,63.68
2022-10-05T10:39:57.832Z,63.28
2022-10-05T10:45:25.194Z,62.25
2022-10-05T10:50:44.041Z,61.38
2022-10-05T10:56:05.710Z,61.50
2022-10-05T11:01:35.324Z,60.93
2022-10-05T11:07:29.005Z,60.67
2022-10-05T11:13:12.395Z,60.26
2022-10-05T11:18:22.619Z,58.83
2022-10-05T11:24:09.083Z,59.37
2022-10-05T11:30:01.915Z,58.63
2022-10-05T11:35:24.623Z,57.61
2022-10-05T11:41:15.979Z,57.90
2022-10-05T11:46:37.826Z,57.55
2022-10-05T11:51:55.147Z,57.52
2022-10-05T11:57:05.691Z,56.16
2022-10-05T12:02:38.868Z,55.61
2022-10-05T12:08:06.826Z,54.82
2022-10-05T12:13:24.808Z,54.56
2022-10-05T12:18:31.116Z,54.79
2022-10-05T12:23:40.007Z,55.10
2022-10-05T12:28:49.673Z,55.17
2022-10-05T12:34:26.876Z,55.11
2022-10-05T12:39:55.261Z,55.15
2022-10-05T12:45:20.303Z,54.71
2022-10-05T12:50:37.185Z,55.92
2022-10-05T12:55:53.932Z,56.05
2022-10-05T13:01:52.185Z,56.51
2022-10-05T13:07:13.313Z,56.37
2022-10-05T13:12:58.882Z,56.91
2022-10-05T13:18:18.986Z,56.66
2022-10-05T13:23:34.864Z,56.93
2022-10-05T13:28:59.287Z,56.71
2022-10-05T13:34:14.329Z,57.14
2022-10-05T13:39:46.934Z,57.60
2022-10-05T13:45:25.335Z,57.54
2022-10-05T13:50:33.622Z,58.08
2022-10-05T13:55:46.638Z,58.69
2022-10-05T14:00:55.998Z,58.14
2022-10-05T14:06:01.513Z,59.27
2022-10-05T14:11:36.244Z,59.65
2022-10-05T14:17:33.890Z,59.81
2022-10-05T14:22:41.217Z,60.85
2022-10-05T14:28:11.488Z,61.42
2022-10-05T14:33:16.152Z,61.91
2022-10-05T14:38:23.556Z,62.53
2022-10-05T14:43:26.212Z,62.62
2022-10-05T14:48:40.159Z,63.62
2022-10-05T14:54:00.943Z,64.19
2022-10-05T15:00:12.419Z,64.39
2022-10-05T15:05:28.974Z,65.08
2022-10-05T15:10:43.389Z,65.44
2022-10-05T15:15:54.817Z,65.85
2022-10-05T15:21:22.625Z,66.59
2022-10-05T15:26:53.470Z,67.14
2022-10-05T15:32:41.780Z,67.47
2022-10-05T15:37:49.478Z,67.99
2022-10-05T15:42:53.292Z,68.34
2022-10-05T15:48:36.523Z,69.23
2022-10-05T15:54:20.614Z,69.61
2022-10-05T15:59:48.636Z,70.52
2022-10-05T16:05:48.313Z,70.71
2022-10-05T16:10:51.075Z,71.40
2022-10-05T16:16:27.952Z,71.81
2022-10-05T16:21:46.029Z,72.36
2022-10-05T16:27:05.999Z,72.42
2022-10-05T16:32:30.350Z,72.89
2022-10-05T16:37:57.611Z,73.32
2022-10-05T16:44:03.990Z,73.41
2022-10-05T16:49:51.362Z,73.57
2022-10-05T16:54:57.613Z,73.82
2022-10-05T17:00:23.749Z,74.02
2022-10-05T17:05:56.078Z,74.35
2022-10-05T17:11:31.440Z,74.63
2022-10-05T17:16:45.868Z,74.83
2022-10-05T17:22:03.146Z,75.07
2022-10-05T17:27:51.127Z,75.37
2022-10-05T17:33:20.302Z,75.32
2022-10-05T17:38:44.648Z,75.28
2022-10-05T17:44:16.413Z,75.60
2022-10-05T17:50:18.106Z,75.90
2022-10-05T17:55:32.926Z,75.71
2022-10-05T18:00:43.573Z,76.05
2022-10-05T18:05:46.394Z,76.49
2022-10-05T18:11:25.957Z,76.60
2022-10-05T18:17:02.020Z,76.85
2022-10-05T18:22:16.891Z,76.64
2022-10-05T18:28:22.437Z,76.91
2022-10-05T18:33:47.225Z,77.10
2022-10-05T18:39:11.581Z,77.09
2022-10-05T18:45:02.541Z,77.12
2022-10-05T18:50:25.337Z,77.20
2022-10-05T18:56:02.342Z,77.20
2022-10-05T19:01:36.851Z,77.50
2022-10-05T19:06:58.534Z,77.26
2022-10-05T19:12:32.427Z,77.19
2022-10-05T19:18:30.500Z,77.10
2022-10-05T19:24:04.708Z,77.51
2022-10-05T19:29:38.851Z,77.30
2022-10-05T19:35:02.413Z,77.29
2022-10-05T19:40:27.629Z,77.35
2022-10-05T19:45:33.616Z,77.46
2022-10-05T19:50:38.410Z,77.86
2022-10-05T19:55:43.621Z,78.02
2022-10-05T20:01:11.318Z,78.07
2022-10-05T20:06:14.008Z,78.19
2022-10-05T20:11:22.454Z,78.40
2022-10-05T20:21:52.124Z,78.81
2022-10-05T20:27:02.220Z,78.46
2022-10-05T20:32:13.860Z,78.67
2022-10-05T20:37:18.458Z,78.86
2022-10-05T20:42:21.337Z,79.23
2022-10-05T20:47:24.993Z,79.10
2022-10-05T20:52:27.716Z,79.49
2022-10-05T20:57:31.532Z,79.43
2022-10-05T21:02:34.199Z,79.51
2022-10-05T21:07:36.989Z,79.85
2022-10-05T21:12:39.778Z,79.65
2022-10-05T21:17:42.442Z,79.96
2022-10-05T21:22:45.163Z,80.16
2022-10-05T21:27:49.904Z,80.51
2022-10-05T21:38:00.229Z,80.45
2022-10-05T21:43:02.931Z,80.65
2022-10-05T21:48:05.749Z,80.85
2022-10-05T21:53:10.100Z,80.69
2022-10-05T21:58:12.804Z,80.60
2022-10-05T22:03:15.795Z,80.68
2022-10-05T22:08:26.468Z,80.87
2022-10-05T22:13:29.485Z,81.08
2022-10-05T22:18:32.275Z,81.21
2022-10-05T22:23:36.017Z,81.41
2022-10-05T22:28:39.320Z,81.48
2022-10-05T22:33:42.028Z,81.67
2022-10-05T22:38:46.640Z,81.84
2022-10-05T22:43:50.819Z,81.83
2022-10-05T22:48:53.667Z,81.85
2022-10-05T22:53:56.376Z,82.28
2022-10-05T22:58:59.052Z,82.53
2022-10-05T23:04:01.881Z,82.46
2022-10-05T23:09:04.595Z,82.71
2022-10-05T23:14:07.282Z,82.73
2022-10-05T23:19:10.560Z,82.78
2022-10-05T23:24:13.293Z,82.86
2022-10-05T23:29:16.032Z,82.95
2022-10-05T23:34:18.793Z,83.19
2022-10-05T23:39:21.623Z,83.32
2022-10-05T23:44:24.266Z,83.49
2022-10-05T23:49:26.971Z,83.51
2022-10-05T23:54:29.772Z,83.36
2022-10-05T23:59:32.459Z,83.50
